sensor_id;sensor_type;location;lat;lon;timestamp;pressure;altitude;pressure_sealevel;temperature;humidity
74594;BME280;63097;51.872;4.460;2023-02-28T00:01:07;103366.53;;;1.64;82.14
74594;BME280;63097;51.872;4.460;2023-02-28T00:03:33;103366.78;;;1.81;81.40
74594;BME280;63097;51.872;4.460;2023-02-28T00:05:58;103356.38;;;1.75;81.68
74594;BME280;63097;51.872;4.460;2023-02-28T00:08:23;103358.72;;;1.59;81.93
74594;BME280;63097;51.872;4.460;2023-02-28T00:10:49;103357.25;;;1.55;82.28
74594;BME280;63097;51.872;4.460;2023-02-28T00:13:14;103355.03;;;1.49;82.36
74594;BME280;63097;51.872;4.460;2023-02-28T00:15:39;103357.13;;;1.25;82.88
74594;BME280;63097;51.872;4.460;2023-02-28T00:18:05;103357.72;;;1.08;83.44
74594;BME280;63097;51.872;4.460;2023-02-28T00:20:30;103360.88;;;0.92;84.09
74594;BME280;63097;51.872;4.460;2023-02-28T00:22:55;103364.34;;;0.94;84.52
74594;BME280;63097;51.872;4.460;2023-02-28T00:25:23;103359.13;;;1.23;83.44
74594;BME280;63097;51.872;4.460;2023-02-28T00:27:49;103362.72;;;1.35;83.13
74594;BME280;63097;51.872;4.460;2023-02-28T00:30:20;103361.44;;;1.07;83.66
74594;BME280;63097;51.872;4.460;2023-02-28T00:32:46;103362.41;;;1.17;83.66
74594;BME280;63097;51.872;4.460;2023-02-28T00:35:12;103371.34;;;1.19;83.73
74594;BME280;63097;51.872;4.460;2023-02-28T00:37:38;103380.72;;;1.17;83.72
74594;BME280;63097;51.872;4.460;2023-02-28T00:40:04;103383.91;;;1.33;83.99
74594;BME280;63097;51.872;4.460;2023-02-28T00:42:30;103372.34;;;1.50;84.14
74594;BME280;63097;51.872;4.460;2023-02-28T00:44:55;103375.44;;;1.77;83.32
74594;BME280;63097;51.872;4.460;2023-02-28T00:47:21;103376.03;;;2.01;82.57
74594;BME280;63097;51.872;4.460;2023-02-28T00:49:46;103365.72;;;1.93;82.07
74594;BME280;63097;51.872;4.460;2023-02-28T00:52:11;103364.78;;;2.04;81.93
74594;BME280;63097;51.872;4.460;2023-02-28T00:54:36;103369.44;;;2.13;82.11
74594;BME280;63097;51.872;4.460;2023-02-28T00:57:02;103364.69;;;2.45;80.64
74594;BME280;63097;51.872;4.460;2023-02-28T00:59:27;103368.44;;;2.44;80.75
74594;BME280;63097;51.872;4.460;2023-02-28T01:01:52;103367.44;;;2.45;80.92
74594;BME280;63097;51.872;4.460;2023-02-28T01:04:18;103357.16;;;2.47;80.85
74594;BME280;63097;51.872;4.460;2023-02-28T01:06:43;103360.34;;;2.43;81.22
74594;BME280;63097;51.872;4.460;2023-02-28T01:09:09;103352.44;;;2.59;80.78
74594;BME280;63097;51.872;4.460;2023-02-28T01:11:35;103364.84;;;2.53;80.91
74594;BME280;63097;51.872;4.460;2023-02-28T01:14:00;103362.00;;;2.64;80.61
74594;BME280;63097;51.872;4.460;2023-02-28T01:16:27;103364.84;;;2.53;80.78
74594;BME280;63097;51.872;4.460;2023-02-28T01:18:52;103366.44;;;2.56;80.98
74594;BME280;63097;51.872;4.460;2023-02-28T01:21:19;103368.66;;;2.71;80.72
74594;BME280;63097;51.872;4.460;2023-02-28T01:23:45;103371.25;;;2.73;80.28
74594;BME280;63097;51.872;4.460;2023-02-28T01:26:15;103378.22;;;2.67;80.71
74594;BME280;63097;51.872;4.460;2023-02-28T01:28:41;103368.97;;;2.78;80.23
74594;BME280;63097;51.872;4.460;2023-02-28T01:31:06;103368.13;;;2.87;80.36
74594;BME280;63097;51.872;4.460;2023-02-28T01:33:32;103361.94;;;2.94;79.60
74594;BME280;63097;51.872;4.460;2023-02-28T01:36:01;103355.25;;;2.78;80.21
74594;BME280;63097;51.872;4.460;2023-02-28T01:38:27;103362.06;;;2.83;80.00
74594;BME280;63097;51.872;4.460;2023-02-28T01:40:53;103358.28;;;2.84;80.50
74594;BME280;63097;51.872;4.460;2023-02-28T01:45:48;103361.19;;;2.83;80.12
74594;BME280;63097;51.872;4.460;2023-02-28T01:48:13;103362.50;;;2.98;79.45
74594;BME280;63097;51.872;4.460;2023-02-28T01:50:42;103360.91;;;2.95;79.45
74594;BME280;63097;51.872;4.460;2023-02-28T01:53:13;103359.19;;;2.94;79.75
74594;BME280;63097;51.872;4.460;2023-02-28T01:55:41;103352.69;;;3.05;79.30
74594;BME280;63097;51.872;4.460;2023-02-28T01:58:10;103345.00;;;2.99;79.69
74594;BME280;63097;51.872;4.460;2023-02-28T02:00:35;103347.75;;;3.08;79.51
74594;BME280;63097;51.872;4.460;2023-02-28T02:03:08;103337.50;;;3.11;79.25
74594;BME280;63097;51.872;4.460;2023-02-28T02:05:36;103330.84;;;3.13;78.89
74594;BME280;63097;51.872;4.460;2023-02-28T02:08:05;103329.25;;;3.11;79.09
74594;BME280;63097;51.872;4.460;2023-02-28T02:10:43;103332.28;;;3.17;78.61
74594;BME280;63097;51.872;4.460;2023-02-28T02:13:36;103332.00;;;3.11;78.88
74594;BME280;63097;51.872;4.460;2023-02-28T02:16:29;103325.47;;;3.02;79.10
74594;BME280;63097;51.872;4.460;2023-02-28T02:19:36;103327.34;;;3.01;79.58
74594;BME280;63097;51.872;4.460;2023-02-28T02:22:37;103323.03;;;3.18;78.67
74594;BME280;63097;51.872;4.460;2023-02-28T02:25:33;103320.53;;;3.25;78.26
74594;BME280;63097;51.872;4.460;2023-02-28T02:31:50;103329.25;;;3.20;78.55
74594;BME280;63097;51.872;4.460;2023-02-28T02:34:42;103327.94;;;3.34;77.73
74594;BME280;63097;51.872;4.460;2023-02-28T02:37:58;103321.41;;;3.16;78.74
74594;BME280;63097;51.872;4.460;2023-02-28T02:40:14;103323.88;;;3.28;78.12
74594;BME280;63097;51.872;4.460;2023-02-28T02:42:55;103327.19;;;3.32;77.66
74594;BME280;63097;51.872;4.460;2023-02-28T02:45:27;103313.59;;;3.21;77.77
74594;BME280;63097;51.872;4.460;2023-02-28T02:47:55;103318.38;;;3.28;78.22
74594;BME280;63097;51.872;4.460;2023-02-28T02:50:31;103321.00;;;3.20;78.11
74594;BME280;63097;51.872;4.460;2023-02-28T02:53:00;103321.16;;;3.19;78.56
74594;BME280;63097;51.872;4.460;2023-02-28T02:55:27;103311.28;;;3.35;78.35
74594;BME280;63097;51.872;4.460;2023-02-28T02:57:54;103304.91;;;3.25;78.93
74594;BME280;63097;51.872;4.460;2023-02-28T03:00:24;103313.31;;;3.24;78.41
74594;BME280;63097;51.872;4.460;2023-02-28T03:02:52;103315.91;;;3.16;79.02
74594;BME280;63097;51.872;4.460;2023-02-28T03:05:23;103315.19;;;3.14;79.10
74594;BME280;63097;51.872;4.460;2023-02-28T03:07:50;103324.34;;;3.33;78.49
74594;BME280;63097;51.872;4.460;2023-02-28T03:13:03;103328.78;;;3.25;78.84
74594;BME280;63097;51.872;4.460;2023-02-28T03:18:43;103315.31;;;3.41;78.68
74594;BME280;63097;51.872;4.460;2023-02-28T03:21:27;103328.94;;;3.33;78.81
74594;BME280;63097;51.872;4.460;2023-02-28T03:24:08;103331.84;;;3.31;78.93
74594;BME280;63097;51.872;4.460;2023-02-28T03:26:39;103330.97;;;3.21;79.85
74594;BME280;63097;51.872;4.460;2023-02-28T03:31:49;103330.56;;;3.26;79.34
74594;BME280;63097;51.872;4.460;2023-02-28T03:34:37;103336.63;;;3.29;79.55
74594;BME280;63097;51.872;4.460;2023-02-28T03:37:13;103339.50;;;3.37;79.15
74594;BME280;63097;51.872;4.460;2023-02-28T03:39:47;103341.09;;;3.30;80.02
74594;BME280;63097;51.872;4.460;2023-02-28T03:42:19;103327.34;;;3.40;79.13
74594;BME280;63097;51.872;4.460;2023-02-28T03:44:53;103328.38;;;3.29;79.61
74594;BME280;63097;51.872;4.460;2023-02-28T03:47:31;103332.28;;;3.27;79.63
74594;BME280;63097;51.872;4.460;2023-02-28T03:50:07;103334.16;;;3.36;79.08
74594;BME280;63097;51.872;4.460;2023-02-28T03:52:37;103337.78;;;3.36;79.11
74594;BME280;63097;51.872;4.460;2023-02-28T03:55:10;103334.03;;;3.28;79.71
74594;BME280;63097;51.872;4.460;2023-02-28T03:57:51;103332.28;;;3.27;79.77
74594;BME280;63097;51.872;4.460;2023-02-28T04:00:40;103331.41;;;3.36;79.34
74594;BME280;63097;51.872;4.460;2023-02-28T04:03:08;103320.69;;;3.42;79.29
74594;BME280;63097;51.872;4.460;2023-02-28T04:05:48;103317.66;;;3.36;79.03
74594;BME280;63097;51.872;4.460;2023-02-28T04:08:15;103318.94;;;3.32;79.24
74594;BME280;63097;51.872;4.460;2023-02-28T04:10:41;103320.97;;;3.30;79.32
74594;BME280;63097;51.872;4.460;2023-02-28T04:13:08;103315.63;;;3.47;78.59
74594;BME280;63097;51.872;4.460;2023-02-28T04:15:33;103321.44;;;3.35;78.82
74594;BME280;63097;51.872;4.460;2023-02-28T04:17:59;103330.25;;;3.29;79.09
74594;BME280;63097;51.872;4.460;2023-02-28T04:20:24;103324.75;;;3.48;78.62
74594;BME280;63097;51.872;4.460;2023-02-28T04:22:49;103326.19;;;3.42;78.08
74594;BME280;63097;51.872;4.460;2023-02-28T04:25:15;103321.59;;;3.33;78.54
74594;BME280;63097;51.872;4.460;2023-02-28T04:27:40;103332.84;;;3.30;78.49
74594;BME280;63097;51.872;4.460;2023-02-28T04:30:07;103326.19;;;3.33;78.76
74594;BME280;63097;51.872;4.460;2023-02-28T04:32:32;103328.78;;;3.25;78.92
74594;BME280;63097;51.872;4.460;2023-02-28T04:34:58;103323.88;;;3.28;78.91
74594;BME280;63097;51.872;4.460;2023-02-28T04:37:23;103328.50;;;3.37;78.33
74594;BME280;63097;51.872;4.460;2023-02-28T04:39:48;103332.84;;;3.40;78.08
74594;BME280;63097;51.872;4.460;2023-02-28T04:42:14;103330.38;;;3.46;77.40
74594;BME280;63097;51.872;4.460;2023-02-28T04:44:40;103326.78;;;3.36;77.76
74594;BME280;63097;51.872;4.460;2023-02-28T04:47:05;103336.03;;;3.35;78.23
74594;BME280;63097;51.872;4.460;2023-02-28T04:49:31;103331.81;;;3.41;77.36
74594;BME280;63097;51.872;4.460;2023-02-28T04:51:56;103337.06;;;3.44;77.06
74594;BME280;63097;51.872;4.460;2023-02-28T04:54:21;103334.44;;;3.52;76.06
74594;BME280;63097;51.872;4.460;2023-02-28T04:56:46;103340.38;;;3.57;76.27
74594;BME280;63097;51.872;4.460;2023-02-28T04:59:12;103345.88;;;3.47;77.09
74594;BME280;63097;51.872;4.460;2023-02-28T05:01:37;103348.34;;;3.60;76.07
74594;BME280;63097;51.872;4.460;2023-02-28T05:04:04;103348.34;;;3.60;76.84
74594;BME280;63097;51.872;4.460;2023-02-28T05:06:31;103351.66;;;3.54;76.92
74594;BME280;63097;51.872;4.460;2023-02-28T05:08:57;103346.31;;;3.43;77.41
74594;BME280;63097;51.872;4.460;2023-02-28T05:11:31;103349.63;;;3.46;77.55
74594;BME280;63097;51.872;4.460;2023-02-28T05:13:57;103351.81;;;3.62;76.40
74594;BME280;63097;51.872;4.460;2023-02-28T05:16:22;103346.16;;;3.54;77.16
74594;BME280;63097;51.872;4.460;2023-02-28T05:18:47;103352.13;;;3.49;76.90
74594;BME280;63097;51.872;4.460;2023-02-28T05:21:31;103345.72;;;3.39;77.06
74594;BME280;63097;51.872;4.460;2023-02-28T05:23:59;103352.13;;;3.49;76.75
74594;BME280;63097;51.872;4.460;2023-02-28T05:26:25;103347.75;;;3.56;75.07
74594;BME280;63097;51.872;4.460;2023-02-28T05:28:51;103343.84;;;3.40;75.83
74594;BME280;63097;51.872;4.460;2023-02-28T05:31:17;103356.00;;;3.47;75.87
74594;BME280;63097;51.872;4.460;2023-02-28T05:33:42;103353.25;;;3.37;76.43
74594;BME280;63097;51.872;4.460;2023-02-28T05:36:07;103361.41;;;3.39;76.68
74594;BME280;63097;51.872;4.460;2023-02-28T05:38:33;103355.13;;;3.46;77.01
74594;BME280;63097;51.872;4.460;2023-02-28T05:40:58;103351.38;;;3.38;77.17
74594;BME280;63097;51.872;4.460;2023-02-28T05:43:24;103359.78;;;3.36;77.24
74594;BME280;63097;51.872;4.460;2023-02-28T05:45:49;103359.63;;;3.38;77.30
74594;BME280;63097;51.872;4.460;2023-02-28T05:48:15;103372.53;;;3.47;76.35
74594;BME280;63097;51.872;4.460;2023-02-28T05:50:40;103367.72;;;3.30;77.06
74594;BME280;63097;51.872;4.460;2023-02-28T05:53:05;103359.75;;;3.17;77.92
74594;BME280;63097;51.872;4.460;2023-02-28T05:55:31;103365.16;;;3.19;77.83
74594;BME280;63097;51.872;4.460;2023-02-28T05:57:56;103367.44;;;3.23;77.78
74594;BME280;63097;51.872;4.460;2023-02-28T06:00:21;103358.78;;;3.18;77.60
74594;BME280;63097;51.872;4.460;2023-02-28T06:02:47;103364.09;;;3.10;76.83
74594;BME280;63097;51.872;4.460;2023-02-28T06:05:17;103352.34;;;2.98;76.25
74594;BME280;63097;51.872;4.460;2023-02-28T06:07:43;103356.41;;;3.04;75.49
74594;BME280;63097;51.872;4.460;2023-02-28T06:10:10;103359.16;;;3.04;74.68
74594;BME280;63097;51.872;4.460;2023-02-28T06:12:36;103359.78;;;3.08;73.98
74594;BME280;63097;51.872;4.460;2023-02-28T06:15:01;103349.34;;;3.01;73.05
74594;BME280;63097;51.872;4.460;2023-02-28T06:17:27;103362.66;;;2.96;72.97
74594;BME280;63097;51.872;4.460;2023-02-28T06:19:52;103361.03;;;2.84;72.46
74594;BME280;63097;51.872;4.460;2023-02-28T06:22:17;103354.34;;;2.68;73.47
74594;BME280;63097;51.872;4.460;2023-02-28T06:24:43;103352.94;;;2.83;73.03
74594;BME280;63097;51.872;4.460;2023-02-28T06:27:08;103348.44;;;2.72;73.09
74594;BME280;63097;51.872;4.460;2023-02-28T06:29:34;103310.97;;;2.81;69.76
74594;BME280;63097;51.872;4.460;2023-02-28T06:31:59;103360.44;;;2.81;70.61
74594;BME280;63097;51.872;4.460;2023-02-28T06:34:25;103356.34;;;2.66;71.00
74594;BME280;63097;51.872;4.460;2023-02-28T06:36:51;103362.44;;;2.60;71.43
74594;BME280;63097;51.872;4.460;2023-02-28T06:39:17;103367.34;;;2.56;72.70
74594;BME280;63097;51.872;4.460;2023-02-28T06:41:42;103364.25;;;2.50;73.23
74594;BME280;63097;51.872;4.460;2023-02-28T06:44:17;103356.19;;;2.58;73.61
74594;BME280;63097;51.872;4.460;2023-02-28T06:46:44;103356.34;;;2.56;74.24
74594;BME280;63097;51.872;4.460;2023-02-28T06:49:10;103361.94;;;2.55;74.64
74594;BME280;63097;51.872;4.460;2023-02-28T06:51:37;103362.53;;;2.58;75.36
74594;BME280;63097;51.872;4.460;2023-02-28T06:54:03;103368.19;;;2.57;75.54
74594;BME280;63097;51.872;4.460;2023-02-28T06:56:28;103363.41;;;2.59;76.42
74594;BME280;63097;51.872;4.460;2023-02-28T06:58:54;103365.69;;;2.44;76.99
74594;BME280;63097;51.872;4.460;2023-02-28T07:01:20;103370.03;;;2.47;78.17
74594;BME280;63097;51.872;4.460;2023-02-28T07:03:46;103371.28;;;2.33;79.09
74594;BME280;63097;51.872;4.460;2023-02-28T07:06:11;103375.97;;;2.22;79.88
74594;BME280;63097;51.872;4.460;2023-02-28T07:08:37;103389.19;;;2.07;81.44
74594;BME280;63097;51.872;4.460;2023-02-28T07:11:04;103383.88;;;1.85;83.24
74594;BME280;63097;51.872;4.460;2023-02-28T07:13:29;103395.53;;;1.77;85.11
74594;BME280;63097;51.872;4.460;2023-02-28T07:15:56;103394.72;;;1.66;85.55
74594;BME280;63097;51.872;4.460;2023-02-28T07:18:22;103410.16;;;1.67;86.61
74594;BME280;63097;51.872;4.460;2023-02-28T07:20:47;103411.09;;;1.56;87.39
74594;BME280;63097;51.872;4.460;2023-02-28T07:23:13;103406.66;;;1.44;88.43
74594;BME280;63097;51.872;4.460;2023-02-28T07:25:38;103396.53;;;1.45;89.30
74594;BME280;63097;51.872;4.460;2023-02-28T07:28:03;103396.63;;;1.34;89.68
74594;BME280;63097;51.872;4.460;2023-02-28T07:30:29;103402.75;;;1.26;90.23
74594;BME280;63097;51.872;4.460;2023-02-28T07:32:54;103401.00;;;1.25;90.88
74594;BME280;63097;51.872;4.460;2023-02-28T07:35:19;103407.59;;;1.34;90.67
74594;BME280;63097;51.872;4.460;2023-02-28T07:37:45;103405.25;;;1.18;91.21
74594;BME280;63097;51.872;4.460;2023-02-28T07:40:11;103402.00;;;1.24;91.33
74594;BME280;63097;51.872;4.460;2023-02-28T07:42:37;103408.13;;;1.17;91.68
74594;BME280;63097;51.872;4.460;2023-02-28T07:45:06;103404.88;;;1.23;91.85
74594;BME280;63097;51.872;4.460;2023-02-28T07:47:31;103403.00;;;1.23;92.21
74594;BME280;63097;51.872;4.460;2023-02-28T07:49:57;103408.75;;;1.20;92.03
74594;BME280;63097;51.872;4.460;2023-02-28T07:52:23;103412.72;;;1.27;92.22
74594;BME280;63097;51.872;4.460;2023-02-28T07:54:51;103409.22;;;1.25;92.37
74594;BME280;63097;51.872;4.460;2023-02-28T07:57:17;103405.84;;;1.33;92.27
74594;BME280;63097;51.872;4.460;2023-02-28T07:59:42;103403.59;;;1.27;91.94
74594;BME280;63097;51.872;4.460;2023-02-28T08:02:13;103414.72;;;1.25;92.14
74594;BME280;63097;51.872;4.460;2023-02-28T08:04:39;103404.16;;;1.21;92.54
74594;BME280;63097;51.872;4.460;2023-02-28T08:07:04;103402.16;;;1.23;92.56
74594;BME280;63097;51.872;4.460;2023-02-28T08:09:29;103400.00;;;1.26;93.26
74594;BME280;63097;51.872;4.460;2023-02-28T08:11:55;103389.56;;;1.52;92.29
74594;BME280;63097;51.872;4.460;2023-02-28T08:14:20;103405.75;;;1.55;92.13
74594;BME280;63097;51.872;4.460;2023-02-28T08:16:45;103398.28;;;1.77;91.90
74594;BME280;63097;51.872;4.460;2023-02-28T08:19:11;103396.00;;;1.82;91.38
74594;BME280;63097;51.872;4.460;2023-02-28T08:21:36;103403.69;;;1.68;91.69
74594;BME280;63097;51.872;4.460;2023-02-28T08:24:01;103397.72;;;1.83;91.44
74594;BME280;63097;51.872;4.460;2023-02-28T08:26:26;103394.06;;;1.73;91.50
74594;BME280;63097;51.872;4.460;2023-02-28T08:28:52;103405.28;;;1.70;92.21
74594;BME280;63097;51.872;4.460;2023-02-28T08:31:18;103391.56;;;1.70;92.46
74594;BME280;63097;51.872;4.460;2023-02-28T08:33:44;103404.16;;;1.73;92.43
74594;BME280;63097;51.872;4.460;2023-02-28T08:36:09;103402.81;;;1.88;92.23
74594;BME280;63097;51.872;4.460;2023-02-28T08:38:36;103398.00;;;2.01;91.91
74594;BME280;63097;51.872;4.460;2023-02-28T08:41:04;103394.69;;;2.07;91.30
74594;BME280;63097;51.872;4.460;2023-02-28T08:43:30;103400.25;;;1.96;91.09
74594;BME280;63097;51.872;4.460;2023-02-28T08:45:55;103400.38;;;2.15;90.97
74594;BME280;63097;51.872;4.460;2023-02-28T08:48:21;103398.34;;;2.38;90.34
74594;BME280;63097;51.872;4.460;2023-02-28T08:50:59;103400.25;;;2.47;89.00
74594;BME280;63097;51.872;4.460;2023-02-28T08:53:25;103385.28;;;2.30;89.71
74594;BME280;63097;51.872;4.460;2023-02-28T08:56:02;103393.09;;;2.35;90.36
74594;BME280;63097;51.872;4.460;2023-02-28T08:58:28;103383.94;;;2.55;89.47
74594;BME280;63097;51.872;4.460;2023-02-28T09:00:54;103393.75;;;2.48;88.51
74594;BME280;63097;51.872;4.460;2023-02-28T09:03:20;103386.97;;;2.52;88.24
74594;BME280;63097;51.872;4.460;2023-02-28T09:06:00;103386.91;;;2.42;88.59
74594;BME280;63097;51.872;4.460;2023-02-28T09:08:28;103386.69;;;2.55;89.46
74594;BME280;63097;51.872;4.460;2023-02-28T09:10:53;103397.25;;;2.59;88.72
74594;BME280;63097;51.872;4.460;2023-02-28T09:13:18;103391.44;;;2.53;88.51
74594;BME280;63097;51.872;4.460;2023-02-28T09:15:44;103386.03;;;2.72;88.22
74594;BME280;63097;51.872;4.460;2023-02-28T09:18:10;103386.63;;;2.75;87.80
74594;BME280;63097;51.872;4.460;2023-02-28T09:20:38;103394.22;;;3.02;86.13
74594;BME280;63097;51.872;4.460;2023-02-28T09:23:03;103380.03;;;3.16;85.32
74594;BME280;63097;51.872;4.460;2023-02-28T09:25:28;103382.91;;;2.95;85.88
74594;BME280;63097;51.872;4.460;2023-02-28T09:27:54;103397.53;;;2.96;86.76
74594;BME280;63097;51.872;4.460;2023-02-28T09:30:19;103394.66;;;3.07;85.49
74594;BME280;63097;51.872;4.460;2023-02-28T09:32:44;103399.28;;;3.06;85.47
74594;BME280;63097;51.872;4.460;2023-02-28T09:35:10;103400.84;;;2.99;86.55
74594;BME280;63097;51.872;4.460;2023-02-28T09:37:35;103398.41;;;3.16;85.81
74594;BME280;63097;51.872;4.460;2023-02-28T09:40:00;103399.59;;;3.13;85.70
74594;BME280;63097;51.872;4.460;2023-02-28T09:42:31;103400.59;;;3.22;84.85
74594;BME280;63097;51.872;4.460;2023-02-28T09:45:00;103399.03;;;3.48;83.78
74594;BME280;63097;51.872;4.460;2023-02-28T09:47:28;103402.66;;;3.39;84.36
74594;BME280;63097;51.872;4.460;2023-02-28T09:49:57;103402.94;;;3.36;83.97
74594;BME280;63097;51.872;4.460;2023-02-28T09:52:30;103405.53;;;3.47;84.50
74594;BME280;63097;51.872;4.460;2023-02-28T09:57:45;103408.16;;;3.29;82.34
74594;BME280;63097;51.872;4.460;2023-02-28T10:02:57;103413.22;;;3.24;81.91
74594;BME280;63097;51.872;4.460;2023-02-28T10:05:34;103408.44;;;3.45;82.18
74594;BME280;63097;51.872;4.460;2023-02-28T10:08:17;103413.22;;;3.43;81.49
74594;BME280;63097;51.872;4.460;2023-02-28T10:10:47;103407.44;;;3.37;80.77
74594;BME280;63097;51.872;4.460;2023-02-28T10:16:01;103417.25;;;3.30;79.11
74594;BME280;63097;51.872;4.460;2023-02-28T10:18:38;103407.69;;;3.15;79.33
74594;BME280;63097;51.872;4.460;2023-02-28T10:21:05;103414.97;;;3.44;79.35
74594;BME280;63097;51.872;4.460;2023-02-28T10:23:34;103408.44;;;3.45;79.42
74594;BME280;63097;51.872;4.460;2023-02-28T10:26:09;103404.41;;;3.59;79.39
74594;BME280;63097;51.872;4.460;2023-02-28T10:28:36;103403.53;;;3.58;78.32
74594;BME280;63097;51.872;4.460;2023-02-28T10:31:02;103394.97;;;3.71;79.33
74594;BME280;63097;51.872;4.460;2023-02-28T10:35:54;103392.91;;;3.92;77.26
74594;BME280;63097;51.872;4.460;2023-02-28T10:38:27;103380.34;;;4.36;nan
74594;BME280;63097;51.872;4.460;2023-02-28T10:41:45;103382.13;;;4.54;71.56
74594;BME280;63097;51.872;4.460;2023-02-28T10:43:51;103383.19;;;4.44;69.26
74594;BME280;63097;51.872;4.460;2023-02-28T10:46:18;103384.09;;;5.16;70.38
74594;BME280;63097;51.872;4.460;2023-02-28T10:48:48;103384.81;;;5.53;70.18
74594;BME280;63097;51.872;4.460;2023-02-28T10:51:16;103372.19;;;6.71;67.71
74594;BME280;63097;51.872;4.460;2023-02-28T10:58:57;103356.56;;;8.56;56.86
74594;BME280;63097;51.872;4.460;2023-02-28T11:03:50;103360.53;;;9.31;54.42
74594;BME280;63097;51.872;4.460;2023-02-28T11:08:50;103339.78;;;9.42;46.30
74594;BME280;63097;51.872;4.460;2023-02-28T11:11:17;103358.56;;;8.78;50.06
74594;BME280;63097;51.872;4.460;2023-02-28T11:13:44;103367.50;;;9.50;45.25
74594;BME280;63097;51.872;4.460;2023-02-28T11:16:11;103363.19;;;9.47;45.91
74594;BME280;63097;51.872;4.460;2023-02-28T11:18:50;103355.28;;;10.19;42.83
74594;BME280;63097;51.872;4.460;2023-02-28T11:23:44;103355.97;;;8.77;41.77
74594;BME280;63097;51.872;4.460;2023-02-28T11:26:10;103354.25;;;7.65;45.47
74594;BME280;63097;51.872;4.460;2023-02-28T11:28:40;103358.69;;;7.26;45.75
74594;BME280;63097;51.872;4.460;2023-02-28T11:31:16;103365.53;;;6.89;48.92
74594;BME280;63097;51.872;4.460;2023-02-28T11:36:18;103353.91;;;7.68;44.74
74594;BME280;63097;51.872;4.460;2023-02-28T11:38:44;103351.84;;;8.65;45.05
74594;BME280;63097;51.872;4.460;2023-02-28T11:41:47;103351.66;;;9.36;41.31
74594;BME280;63097;51.872;4.460;2023-02-28T11:47:17;103350.50;;;8.53;42.42
74594;BME280;63097;51.872;4.460;2023-02-28T11:52:50;103339.31;;;9.07;39.98
74594;BME280;63097;51.872;4.460;2023-02-28T11:58:00;103338.41;;;8.38;43.16
74594;BME280;63097;51.872;4.460;2023-02-28T12:11:53;103307.78;;;11.50;35.83
74594;BME280;63097;51.872;4.460;2023-02-28T12:14:50;103306.78;;;12.06;34.82
74594;BME280;63097;51.872;4.460;2023-02-28T12:22:34;103305.16;;;11.48;37.25
74594;BME280;63097;51.872;4.460;2023-02-28T12:25:21;103311.34;;;11.44;36.47
74594;BME280;63097;51.872;4.460;2023-02-28T12:27:49;103296.88;;;12.03;35.58
74594;BME280;63097;51.872;4.460;2023-02-28T12:30:21;103313.72;;;12.91;33.91
74594;BME280;63097;51.872;4.460;2023-02-28T12:33:08;103324.84;;;12.38;33.47
74594;BME280;63097;51.872;4.460;2023-02-28T12:35:43;103311.94;;;11.60;33.69
74594;BME280;63097;51.872;4.460;2023-02-28T12:38:30;103307.00;;;12.39;34.09
74594;BME280;63097;51.872;4.460;2023-02-28T12:41:04;103304.59;;;12.63;33.13
74594;BME280;63097;51.872;4.460;2023-02-28T12:43:38;103303.59;;;12.09;33.97
74594;BME280;63097;51.872;4.460;2023-02-28T12:46:34;103302.31;;;12.11;33.02
74594;BME280;63097;51.872;4.460;2023-02-28T12:49:16;103300.41;;;12.87;30.74
74594;BME280;63097;51.872;4.460;2023-02-28T12:51:43;103301.44;;;12.79;32.72
74594;BME280;63097;51.872;4.460;2023-02-28T12:54:24;103302.28;;;13.34;31.45
74594;BME280;63097;51.872;4.460;2023-02-28T12:59:51;103288.38;;;13.53;29.65
74594;BME280;63097;51.872;4.460;2023-02-28T13:02:33;103279.25;;;12.65;30.49
74594;BME280;63097;51.872;4.460;2023-02-28T13:10:46;103272.56;;;12.59;31.18
74594;BME280;63097;51.872;4.460;2023-02-28T13:13:18;103269.84;;;13.33;30.80
74594;BME280;63097;51.872;4.460;2023-02-28T13:16:03;103267.81;;;12.53;32.57
74594;BME280;63097;51.872;4.460;2023-02-28T13:18:32;103256.94;;;14.30;29.30
74594;BME280;63097;51.872;4.460;2023-02-28T13:20:59;103248.28;;;14.25;28.17
74594;BME280;63097;51.872;4.460;2023-02-28T13:24:01;103255.41;;;14.34;28.33
74594;BME280;63097;51.872;4.460;2023-02-28T13:28:59;103256.88;;;13.05;30.02
74594;BME280;63097;51.872;4.460;2023-02-28T13:31:25;103253.91;;;13.27;30.31
74594;BME280;63097;51.872;4.460;2023-02-28T13:38:48;103251.75;;;14.07;28.10
74594;BME280;63097;51.872;4.460;2023-02-28T13:41:46;103241.00;;;13.32;28.84
74594;BME280;63097;51.872;4.460;2023-02-28T13:44:17;103242.31;;;14.08;27.25
74594;BME280;63097;51.872;4.460;2023-02-28T13:52:16;103244.22;;;14.21;26.89
74594;BME280;63097;51.872;4.460;2023-02-28T14:02:48;103234.72;;;14.22;27.93
74594;BME280;63097;51.872;4.460;2023-02-28T14:05:19;103226.50;;;14.46;27.33
74594;BME280;63097;51.872;4.460;2023-02-28T14:07:49;103232.91;;;14.60;27.71
74594;BME280;63097;51.872;4.460;2023-02-28T14:10:29;103229.78;;;14.81;26.93
74594;BME280;63097;51.872;4.460;2023-02-28T14:12:59;103235.47;;;15.05;26.34
74594;BME280;63097;51.872;4.460;2023-02-28T14:17:54;103226.81;;;15.13;27.85
74594;BME280;63097;51.872;4.460;2023-02-28T14:20:21;103227.91;;;13.72;27.75
74594;BME280;63097;51.872;4.460;2023-02-28T14:22:56;103220.16;;;13.67;28.33
74594;BME280;63097;51.872;4.460;2023-02-28T14:29:02;103222.16;;;14.94;26.94
74594;BME280;63097;51.872;4.460;2023-02-28T14:31:37;103220.75;;;14.15;27.97
74594;BME280;63097;51.872;4.460;2023-02-28T14:36:39;103215.97;;;14.86;27.43
74594;BME280;63097;51.872;4.460;2023-02-28T14:39:10;103213.59;;;14.26;27.87
74594;BME280;63097;51.872;4.460;2023-02-28T14:41:39;103214.66;;;14.38;27.78
74594;BME280;63097;51.872;4.460;2023-02-28T14:44:22;103216.16;;;14.91;27.05
74594;BME280;63097;51.872;4.460;2023-02-28T14:46:55;103214.38;;;15.03;26.21
74594;BME280;63097;51.872;4.460;2023-02-28T14:49:28;103222.50;;;15.11;26.34
74594;BME280;63097;51.872;4.460;2023-02-28T14:54:31;103221.50;;;14.55;27.08
74594;BME280;63097;51.872;4.460;2023-02-28T14:56:56;103204.28;;;15.58;25.80